Dobrodošli na spletni strani vremenske postaje Senovo. Vse informacije so informativnega značaja, saj vremenska postaja ni del državne mreže meteoroloških postaj. AKTUALNIH OBVESTIL NI.


Sneg/Led Od: 23-02-2018 00:00 Do: 23:59 Opozorilo za: Sneg/Led Stopnja: Rumena info button

Pogled proti Armezu več informacij Pogled proti Armezu


Lisca več informacij Lisca


Radar strel več informacij blitzortung!


opozorilo za sneg/led več informacij rain snow radar


Obiščite še:

Template documentation
and downloads

And another site



Weather Underground, zgodovina - Tekstovno

Dnevni povzetek za Januar 3, 2018 Enote:  Metrično    Angleško   Obe
« Predhodni Dan
Naslednji Dan »
Dnevni Tedenski Mesečni Letni Po meri
  Višja: Nižja: Povprečje:
Temperatura: -17.8 °C -17.9 °C -16.1 °C
Točka rosišča: -17.8 °C -18.7 °C -17.2 °C
Vlažnost: Humidity % 57 % 88 %
Hitrost vetra: 0 km/h 0 km/h 3.9 km/h
Sunki vetra: 0 km/h - -
Veter:- - SW
Zračni tlak: 0 hPa 33822.8 hPa -
Padavine: 58.42 mm    
Historical Graphs
 
 
Tabelarni podarki za Januar 3, 2018
Čas Temperatura Točka rosišča Zračni tlak Veter Hitrost vetra Sunki vetra Vlažnost Intenziteta padavin (urna)
-17.8 °C -17.8 °C 0 hPa Calm     Humidity % 0 mm
00:01 -17.1 °C -17.4 °C 34371.3 hPa Calm     96 % 0 mm
00:02 -17.1 °C -17.4 °C 34371.3 hPa Calm     96 % 0 mm
00:07 -17.1 °C -17.4 °C 34371.3 hPa Calm     96 % 0 mm
00:10 -17.1 °C -17.4 °C 34371.3 hPa Calm     96 % 0 mm
00:15 -17.1 °C -17.4 °C 34371.3 hPa Calm   6.4 km/h 96 % 0 mm
00:18 -17.1 °C -17.4 °C 34371.3 hPa NW 1 km/h 6.9 km/h 96 % 0 mm
00:23 -17.1 °C -17.4 °C 34371.3 hPa NNW 2.3 km/h 8 km/h 96 % 0 mm
00:33 -17.2 °C -17.4 °C 34337.4 hPa NNW 3.7 km/h 8.9 km/h 96 % 0 mm
00:35 -17.2 °C -17.4 °C 34337.4 hPa NNW 2.6 km/h 8.9 km/h 96 % 0 mm
00:40 -17.2 °C -17.4 °C 34337.4 hPa NNW 0.3 km/h 4.2 km/h 96 % 0 mm
00:47 -17.2 °C -17.4 °C 34337.4 hPa Calm   2.9 km/h 96 % 0 mm
00:49 -17.2 °C -17.4 °C 34337.4 hPa Calm   2.9 km/h 96 % 0 mm
00:50 -17.1 °C -17.4 °C 34337.4 hPa Calm   2.9 km/h 96 % 0 mm
00:55 -17.1 °C -17.4 °C 34337.4 hPa Calm     96 % 0 mm
00:56 -17.1 °C -17.4 °C 34337.4 hPa Calm     96 % 0 mm
01:01 -17.1 °C -17.4 °C 34371.3 hPa North 1.3 km/h 7.6 km/h 96 % 0 mm
01:02 -17.1 °C -17.4 °C 34371.3 hPa North 1.6 km/h 7.6 km/h 96 % 0 mm
01:07 -17.1 °C -17.4 °C 34371.3 hPa NNW 2.9 km/h 7.6 km/h 96 % 0 mm
01:08 -17.1 °C -17.4 °C 34371.3 hPa NNW 2.3 km/h 6.9 km/h 96 % 0 mm
01:14 -17.1 °C -17.4 °C 34371.3 hPa WNW 0.8 km/h 6.9 km/h 96 % 0 mm
01:18 -17.1 °C -17.4 °C 34371.3 hPa Calm   4.2 km/h 96 % 0 mm
01:23 -17.1 °C -17.4 °C 34371.3 hPa WSW 0.3 km/h 4.2 km/h 96 % 0 mm
01:25 -17.1 °C -17.4 °C 34371.3 hPa WSW 0.3 km/h 4.2 km/h 96 % 0 mm
01:27 -17.1 °C -17.4 °C 34371.3 hPa WSW 0.3 km/h 4.2 km/h 96 % 0 mm
01:32 -17.1 °C -17.4 °C 34371.3 hPa Calm   3.4 km/h 96 % 0 mm
01:37 -17.1 °C -17.4 °C 34371.3 hPa North 0.3 km/h 3.4 km/h 96 % 0 mm
01:42 -17.1 °C -17.4 °C 34371.3 hPa NNE 0.8 km/h 6.4 km/h 96 % 0 mm
01:47 -17.1 °C -17.4 °C 34405.1 hPa NNE 0.8 km/h 6.4 km/h 96 % 0 mm
01:52 -17.1 °C -17.4 °C 34405.1 hPa North 0.5 km/h 6.4 km/h 96 % 0 mm
01:54 -17.1 °C -17.4 °C 34405.1 hPa NNW 0.3 km/h 6.4 km/h 96 % 0 mm
01:59 -17.1 °C -17.4 °C 34405.1 hPa North 1.3 km/h 6.4 km/h 96 % 0 mm
02:04 -17.1 °C -17.4 °C 34405.1 hPa NNE 1.8 km/h 8.9 km/h 96 % 0 mm
02:05 -17.1 °C -17.4 °C 34405.1 hPa North 2.6 km/h 8.9 km/h 96 % 0 mm
02:10 -17.1 °C -17.4 °C 34405.1 hPa North 3.4 km/h 9.3 km/h 96 % 0 mm
02:14 -17.1 °C -17.4 °C 34371.3 hPa North 3.4 km/h 9.3 km/h 96 % 0 mm
02:19 -17.1 °C -17.4 °C 34371.3 hPa NNW 1 km/h 8 km/h 96 % 0 mm
02:21 -17.1 °C -17.4 °C 34371.3 hPa NW 0.3 km/h 4.2 km/h 96 % 0 mm
02:29 -17.2 °C -17.4 °C 34371.3 hPa Calm   5.1 km/h 96 % 0 mm
02:34 -17.2 °C -17.4 °C 34371.3 hPa NNE 0.8 km/h 8.9 km/h 96 % 0 mm
02:35 -17.2 °C -17.4 °C 34371.3 hPa NNE 0.8 km/h 8.9 km/h 96 % 0 mm
02:40 -17.2 °C -17.4 °C 34371.3 hPa NNE 1 km/h 8.9 km/h 96 % 0 mm
02:45 -17.2 °C -17.4 °C 34371.3 hPa North 2.1 km/h 8.9 km/h 96 % 0 mm
02:48 -17.2 °C -17.4 °C 34371.3 hPa North 2.6 km/h 8.9 km/h 96 % 0 mm
02:51 -17.2 °C -17.4 °C 34371.3 hPa North 3.1 km/h 8.9 km/h 96 % 0 mm
02:54 -17.2 °C -17.4 °C 34371.3 hPa NNW 3.7 km/h 8.9 km/h 96 % 0 mm
02:57 -17.2 °C -17.4 °C 34371.3 hPa NNW 3.7 km/h 8.9 km/h 96 % 0 mm
03:02 -17.2 °C -17.6 °C 34371.3 hPa NNW 4.2 km/h 8.9 km/h 96 % 0 mm
03:03 -17.2 °C -17.6 °C 34371.3 hPa NNW 3.9 km/h 7.6 km/h 96 % 0 mm
03:08 -17.3 °C -17.5 °C 34371.3 hPa NNE 2.6 km/h 6.4 km/h 97 % 0 mm
03:09 -17.3 °C -17.5 °C 34371.3 hPa NNE 2.3 km/h 6.9 km/h 97 % 0 mm
03:15 -17.3 °C -17.5 °C 34337.4 hPa NNE 2.3 km/h 6.9 km/h 97 % 0 mm
03:20 -17.3 °C -17.5 °C 34337.4 hPa NE 1.8 km/h 5.6 km/h 97 % 0 mm
03:21 -17.3 °C -17.5 °C 34337.4 hPa NE 2.1 km/h 5.6 km/h 97 % 0 mm
03:26 -17.3 °C -17.5 °C 34337.4 hPa NE 0.8 km/h 4.2 km/h 97 % 0 mm
03:27 -17.3 °C -17.5 °C 34337.4 hPa NE 0.8 km/h 4.2 km/h 97 % 0 mm
03:31 -17.3 °C -17.5 °C 34337.4 hPa NNE 1.3 km/h 6.4 km/h 97 % 0 mm
03:33 -17.3 °C -17.6 °C 34337.4 hPa NNE 1 km/h 6.4 km/h 97 % 0 mm
03:37 -17.3 °C -17.6 °C 34337.4 hPa NNE 1 km/h 6.4 km/h 97 % 0 mm
03:42 -17.3 °C -17.6 °C 34337.4 hPa Calm     97 % 0 mm
03:43 -17.3 °C -17.6 °C 34337.4 hPa Calm     97 % 0 mm
03:46 -17.3 °C -17.6 °C 34337.4 hPa West 0.8 km/h 8 km/h 97 % 0 mm
03:51 -17.3 °C -17.6 °C 34337.4 hPa WNW 1 km/h 8 km/h 97 % 0 mm
03:59 -17.3 °C -17.6 °C 34303.6 hPa NNW 2.9 km/h 8 km/h 97 % 0 mm
04:00 -17.3 °C -17.6 °C 34303.6 hPa NNW 3.1 km/h 8 km/h 97 % 0 mm
04:05 -17.3 °C -17.6 °C 34303.6 hPa NNW 3.1 km/h 8 km/h 97 % 0 mm
04:08 -17.4 °C -17.6 °C 34303.6 hPa NNW 2.9 km/h 6.9 km/h 97 % 0 mm
04:11 -17.4 °C -17.6 °C 34303.6 hPa NNW 2.3 km/h 6.9 km/h 97 % 0 mm
04:17 -17.4 °C -17.6 °C 34303.6 hPa NW 0.5 km/h 2.9 km/h 97 % 0 mm
04:22 -17.4 °C -17.6 °C 34303.6 hPa Calm   2.9 km/h 97 % 0 mm
04:30 -17.4 °C -17.6 °C 34269.7 hPa NNW 1.3 km/h 5.1 km/h 97 % 0 mm
04:32 -17.4 °C -17.6 °C 34269.7 hPa NNW 1.6 km/h 5.1 km/h 97 % 0 mm
04:44 -17.4 °C -17.6 °C 34303.6 hPa NE 2.1 km/h 6.4 km/h 97 % 0 mm
04:50 -17.4 °C -17.7 °C 34303.6 hPa North 0.5 km/h 6.9 km/h 97 % 0 mm
04:53 -17.4 °C -17.6 °C 34303.6 hPa North 0.8 km/h 6.9 km/h 97 % 0 mm
04:55 -17.4 °C -17.7 °C 34303.6 hPa NNW 0.8 km/h 6.9 km/h 97 % 0 mm
05:00 -17.4 °C -17.7 °C 34303.6 hPa North 0.5 km/h 3.4 km/h 97 % 0 mm
05:02 -17.4 °C -17.7 °C 34303.6 hPa Calm     97 % 0 mm
05:07 -17.4 °C -17.7 °C 34303.6 hPa NNW 0.3 km/h 5.6 km/h 97 % 0 mm
05:08 -17.4 °C -17.7 °C 34303.6 hPa NNW 0.3 km/h 5.6 km/h 97 % 0 mm
05:13 -17.4 °C -17.7 °C 34303.6 hPa NW 1.3 km/h 10.3 km/h 97 % 0 mm
05:15 -17.4 °C -17.7 °C 34303.6 hPa NW 1.3 km/h 10.3 km/h 97 % 0 mm
05:20 -17.4 °C -17.7 °C 34303.6 hPa WNW 0.5 km/h 5.6 km/h 97 % 0 mm
05:25 -17.4 °C -17.7 °C 34303.6 hPa NW 0.5 km/h 6.4 km/h 97 % 0 mm
05:30 -17.4 °C -17.7 °C 34303.6 hPa West 1.3 km/h 6.4 km/h 97 % 0 mm
05:34 -17.4 °C -17.7 °C 34303.6 hPa West 1.6 km/h 6.4 km/h 97 % 0 mm
05:40 -17.4 °C -17.7 °C 34303.6 hPa West 2.6 km/h 7.6 km/h 97 % 0 mm
05:45 -17.4 °C -17.7 °C 34303.6 hPa West 4.2 km/h 10.3 km/h 97 % 0 mm
05:49 -17.5 °C -17.7 °C 34303.6 hPa WNW 2.3 km/h 10.3 km/h 97 % 0 mm
05:50 -17.5 °C -17.7 °C 34303.6 hPa WNW 2.3 km/h 10.3 km/h 97 % 0 mm
05:55 -17.5 °C -17.7 °C 34303.6 hPa NNW 0.3 km/h 3.4 km/h 97 % 0 mm
06:00 -17.5 °C -17.7 °C 34269.7 hPa Calm   2.9 km/h 97 % 0 mm
06:01 -17.5 °C -17.7 °C 34269.7 hPa Calm   2.9 km/h 97 % 0 mm
06:06 -17.5 °C -17.7 °C 34269.7 hPa SSW 0.3 km/h 4.2 km/h 97 % 0 mm
06:11 -17.5 °C -17.7 °C 34269.7 hPa SSW 0.8 km/h 4.2 km/h 97 % 0 mm
06:15 -17.5 °C -17.7 °C 34269.7 hPa SSW 0.8 km/h 4.2 km/h 97 % 0 mm
06:20 -17.5 °C -17.7 °C 34269.7 hPa NE 0.8 km/h 5.1 km/h 97 % 0 mm
06:25 -17.5 °C -17.7 °C 34269.7 hPa NE 1 km/h 5.1 km/h 97 % 0 mm
06:30 -17.5 °C -17.7 °C 34269.7 hPa North 0.3 km/h   97 % 0 mm
06:33 -17.4 °C -17.7 °C 34269.7 hPa Calm     97 % 0 mm
06:38 -17.4 °C -17.7 °C 34269.7 hPa Calm     97 % 0 mm
06:42 -17.4 °C -17.7 °C 34269.7 hPa Calm     97 % 0 mm
06:47 -17.4 °C -17.7 °C 34269.7 hPa Calm     97 % 0 mm
06:52 -17.4 °C -17.7 °C 34269.7 hPa Calm   2.9 km/h 97 % 0 mm
06:53 -17.4 °C -17.7 °C 34269.7 hPa Calm   2.9 km/h 97 % 0 mm
07:01 -17.4 °C -17.7 °C 34235.8 hPa NE 1 km/h 5.6 km/h 97 % 0 mm
07:03 -17.4 °C -17.7 °C 34235.8 hPa NE 1 km/h 5.6 km/h 97 % 0 mm
07:07 -17.4 °C -17.7 °C 34235.8 hPa West 3.1 km/h 10.3 km/h 97 % 0 mm
07:12 -17.4 °C -17.7 °C 34235.8 hPa West 5 km/h 10.3 km/h 97 % 0 mm
07:13 -17.4 °C -17.7 °C 34235.8 hPa West 5 km/h 10.3 km/h 97 % 0 mm
07:18 -17.4 °C -17.7 °C 34235.8 hPa WSW 2.6 km/h 8.9 km/h 97 % 0 mm
07:21 -17.4 °C -17.7 °C 34235.8 hPa SSW 0.8 km/h 4.2 km/h 97 % 0 mm
07:23 -17.4 °C -17.7 °C 34235.8 hPa SSE 0.3 km/h 4.2 km/h 97 % 0 mm
07:29 -17.4 °C -17.6 °C 34235.8 hPa Calm   3.4 km/h 97 % 0 mm
07:35 -17.4 °C -17.6 °C 34235.8 hPa Calm   2.9 km/h 97 % 0 mm
07:40 -17.4 °C -17.6 °C 34235.8 hPa Calm   2.9 km/h 97 % 0 mm
07:46 -17.4 °C -17.6 °C 34235.8 hPa Calm   2.3 km/h 97 % 0 mm
07:51 -17.4 °C -17.6 °C 34235.8 hPa Calm   7.6 km/h 97 % 0 mm
07:53 -17.4 °C -17.6 °C 34235.8 hPa West 0.8 km/h 7.6 km/h 97 % 0 mm
07:55 -17.4 °C -17.6 °C 34235.8 hPa West 0.8 km/h 7.6 km/h 97 % 0 mm
08:00 -17.4 °C -17.6 °C 34235.8 hPa NW 2.1 km/h 7.6 km/h 97 % 0 mm
08:02 -17.4 °C -17.6 °C 34235.8 hPa NNW 1.6 km/h 8 km/h 97 % 0 mm
08:07 -17.4 °C -17.6 °C 34235.8 hPa NNW 2.6 km/h 8 km/h 97 % 0 mm
08:13 -17.4 °C -17.6 °C 34235.8 hPa NNW 1.3 km/h 9.3 km/h 97 % 0 mm
08:22 -17.4 °C -17.7 °C 34235.8 hPa NNW 3.1 km/h 9.3 km/h 97 % 0 mm
08:28 -17.4 °C -17.6 °C 34235.8 hPa Calm     97 % 0 mm
08:31 -17.4 °C -17.6 °C 34235.8 hPa SW 1 km/h 7.6 km/h 97 % 0 mm
08:36 -17.4 °C -17.6 °C 34235.8 hPa SW 3.4 km/h 8 km/h 97 % 0 mm
08:41 -17.4 °C -17.6 °C 34235.8 hPa SSW 4.7 km/h 10.3 km/h 97 % 0 mm
08:43 -17.4 °C -17.6 °C 34164.7 hPa SSW 4.2 km/h 10.3 km/h 97 % 0 mm
08:52 -17.4 °C -17.6 °C 34164.7 hPa SW 6.4 km/h 12.7 km/h 97 % 0 mm
08:57 -17.4 °C -17.6 °C 34164.7 hPa WSW 6.4 km/h 12.7 km/h 97 % 0 mm
08:58 -17.4 °C -17.6 °C 34130.9 hPa WSW 6 km/h 12.7 km/h 97 % 0 mm
09:08 -17.4 °C -17.6 °C 34130.9 hPa WSW 4.7 km/h 8.9 km/h 97 % 0 mm
09:09 -17.4 °C -17.6 °C 34130.9 hPa WSW 5 km/h 8.9 km/h 97 % 0 mm
09:17 -17.3 °C -17.6 °C 34164.7 hPa WSW 2.6 km/h 9.8 km/h 97 % 0 mm
09:20 -17.3 °C -17.5 °C 34164.7 hPa WSW 3.9 km/h 9.8 km/h 97 % 0 mm
09:25 -17.3 °C -17.5 °C 34164.7 hPa West 6 km/h 9.8 km/h 97 % 0 mm
09:27 -17.3 °C -17.5 °C 34130.9 hPa WNW 5.6 km/h 9.8 km/h 97 % 0 mm
09:32 -17.3 °C -17.5 °C 34130.9 hPa West 4.7 km/h 10.3 km/h 97 % 0 mm
09:42 -17.2 °C -17.4 °C 34130.9 hPa North 0.3 km/h 5.6 km/h 97 % 0 mm
09:46 -17.2 °C -17.4 °C 34130.9 hPa NNW 0.3 km/h 6.9 km/h 97 % 0 mm
09:48 -17.2 °C -17.4 °C 34130.9 hPa NW 0.8 km/h 7.6 km/h 97 % 0 mm
09:53 -17.2 °C -17.4 °C 34130.9 hPa NW 2.1 km/h 9.8 km/h 97 % 0 mm
09:56 -17.2 °C -17.4 °C 34130.9 hPa WNW 3.7 km/h 9.8 km/h 97 % 0 mm
10:01 -17.2 °C -17.4 °C 34130.9 hPa West 3.1 km/h 8.9 km/h 97 % 0 mm
10:03 -17.1 °C -17.3 °C 34130.9 hPa SW 2.3 km/h 8 km/h 97 % 0 mm
10:08 -17.1 °C -17.3 °C 34130.9 hPa SW 1.3 km/h 7.6 km/h 97 % 0 mm
10:09 -17.1 °C -17.3 °C 34130.9 hPa SW 1.6 km/h 7.6 km/h 97 % 0 mm
10:14 -17 °C -17.2 °C 34063.2 hPa NW 2.1 km/h 8 km/h 97 % 0 mm
10:15 -17 °C -17.2 °C 34063.2 hPa NW 2.3 km/h 9.3 km/h 97 % 0 mm
10:20 -17 °C -17.2 °C 34063.2 hPa WNW 6.3 km/h 15 km/h 97 % 0 mm
10:21 -17 °C -17.2 °C 34063.2 hPa WNW 6.4 km/h 15 km/h 97 % 0 mm
10:26 -16.9 °C -17.1 °C 34063.2 hPa SW 8 km/h 15 km/h 97 % 0 mm
10:29 -16.8 °C -17.1 °C 34097 hPa SSW 8 km/h 12.7 km/h 97 % 0 mm
10:35 -16.7 °C -16.9 °C 34097 hPa SSW 8 km/h 12.7 km/h 97 % 0 mm
10:40 -16.7 °C -16.9 °C 34097 hPa SSW 6.3 km/h 9.8 km/h 97 % 0 mm
10:47 -16.6 °C -16.8 °C 34063.2 hPa SW 7.6 km/h 12.7 km/h 97 % 0 mm
10:52 -16.5 °C -16.7 °C 34063.2 hPa SW 8.5 km/h 12.7 km/h 97 % 0 mm
10:53 -16.5 °C -16.7 °C 34063.2 hPa SW 8.5 km/h 12.7 km/h 97 % 0 mm
10:58 -16.5 °C -16.7 °C 34063.2 hPa SW 9 km/h 16.3 km/h 97 % 0 mm
11:03 -16.4 °C -16.7 °C 34063.2 hPa SW 8 km/h 16.3 km/h 97 % 0 mm
11:06 -16.4 °C -16.7 °C 34063.2 hPa SSW 6.3 km/h 9.8 km/h 97 % 0 mm
11:09 -16.4 °C -16.6 °C 34063.2 hPa SSW 5 km/h 9.3 km/h 97 % 0 mm
11:14 -16.3 °C -16.6 °C 33992.1 hPa South 1.6 km/h 8 km/h 97 % 0 mm
11:20 -16.2 °C -16.4 °C 33992.1 hPa SSE 1.6 km/h 9.8 km/h 97 % 0 mm
11:23 -16.1 °C -16.3 °C 33992.1 hPa SSE 3.7 km/h 10.3 km/h 97 % 0 mm
11:25 -16.1 °C -16.3 °C 33992.1 hPa SSE 5.6 km/h 10.3 km/h 97 % 0 mm
11:30 -16 °C -16.2 °C 33992.1 hPa South 7.7 km/h 12.7 km/h 97 % 0 mm
11:31 -15.9 °C -16.2 °C 33992.1 hPa South 7.7 km/h 12.7 km/h 97 % 0 mm
11:37 -15.8 °C -16 °C 33992.1 hPa SSW 9 km/h 12.7 km/h 97 % 0 mm
11:42 -15.5 °C -15.7 °C 33992.1 hPa SSW 9.8 km/h 16.3 km/h 97 % 0 mm
11:47 -15.3 °C -15.6 °C 33992.1 hPa SSW 9.7 km/h 16.3 km/h 97 % 0 mm
11:48 -15.3 °C -15.6 °C 33992.1 hPa SSW 9.7 km/h 16.3 km/h 97 % 0 mm
11:53 -15.1 °C -15.3 °C 33992.1 hPa SSW 8.9 km/h 16.9 km/h 97 % 0 mm
11:58 -14.9 °C -15.2 °C 33958.2 hPa South 7.6 km/h 16.9 km/h 97 % 0 mm
12:00 -14.9 °C -15.1 °C 33958.2 hPa South 6.9 km/h 16.9 km/h 97 % 0 mm
12:05 -14.7 °C -14.9 °C 33958.2 hPa SSE 5.6 km/h 12.2 km/h 97 % 0 mm
12:06 -14.7 °C -14.9 °C 33958.2 hPa SSE 6.3 km/h 12.2 km/h 97 % 0 mm
12:10 -14.6 °C -14.8 °C 33958.2 hPa SSE 6 km/h 11.1 km/h 97 % 0 mm
12:15 -14.4 °C -14.7 °C 33958.2 hPa South 6.9 km/h 12.7 km/h 97 % 0 mm
12:17 -14.4 °C -14.6 °C 33958.2 hPa South 7.2 km/h 12.7 km/h 97 % 0 mm
12:18 -14.4 °C -14.6 °C 33958.2 hPa SSW 7.2 km/h 12.7 km/h 97 % 0 mm
12:22 -14.4 °C -14.6 °C 33958.2 hPa SSW 10.3 km/h 22.5 km/h 97 % 0 mm
12:27 -14.4 °C -14.7 °C 33856.6 hPa SSW 10.9 km/h 22.5 km/h 97 % 0 mm
12:31 -14.4 °C -14.7 °C 33856.6 hPa SSW 10.1 km/h 20.3 km/h 96 % 0 mm
12:33 -14.3 °C -14.7 °C 33856.6 hPa SSW 8.5 km/h 12.7 km/h 96 % 0 mm
12:37 -14.2 °C -14.6 °C 33856.6 hPa South 6.4 km/h 15.6 km/h 96 % 0 mm
12:41 -14.1 °C -14.4 °C 33856.6 hPa SSW 7.6 km/h 16.9 km/h 96 % 0 mm
12:44 -14 °C -14.3 °C 33890.5 hPa SSW 8.5 km/h 16.9 km/h 96 % 0 mm
12:49 -13.8 °C -14.2 °C 33890.5 hPa South 11.1 km/h 17.9 km/h 96 % 0 mm
12:50 -13.8 °C -14.2 °C 33890.5 hPa South 11.4 km/h 17.9 km/h 96 % 0 mm
12:54 -13.6 °C -13.9 °C 33890.5 hPa South 10.3 km/h 17.9 km/h 96 % 0 mm
12:55 -13.6 °C -13.9 °C 33890.5 hPa South 10.3 km/h 17.9 km/h 96 % 0 mm
13:00 -13.6 °C -14 °C 33856.6 hPa SSW 8.5 km/h 16.3 km/h 95 % 0 mm
13:05 -13.5 °C -14 °C 33856.6 hPa West 7.6 km/h 15.6 km/h 94 % 0 mm
13:07 -13.5 °C -14 °C 33856.6 hPa West 8.9 km/h 26.2 km/h 94 % 0 mm
13:11 -13.5 °C -14.1 °C 33856.6 hPa West 10.1 km/h 26.2 km/h 93 % 0 mm
13:12 -13.5 °C -14.2 °C 33856.6 hPa West 11.1 km/h 26.2 km/h 92 % 0 mm
13:17 -13.5 °C -14.3 °C 33856.6 hPa WSW 11.6 km/h 22.5 km/h 91 % 0 mm
13:18 -13.5 °C -14.3 °C 33856.6 hPa WSW 11.6 km/h 22.5 km/h 90 % 0 mm
13:23 -13.6 °C -14.6 °C 33856.6 hPa West 12.2 km/h 26.2 km/h 88 % 0 mm
13:24 -13.6 °C -14.6 °C 33856.6 hPa West 12.7 km/h 26.2 km/h 88 % 0 mm
13:31 -13.6 °C -14.8 °C 33822.8 hPa West 10.6 km/h 26.2 km/h 86 % 0 mm
13:36 -13.6 °C -14.9 °C 33822.8 hPa West 6.8 km/h 18.7 km/h 84 % 0 mm
13:41 -13.5 °C -15.1 °C 33822.8 hPa SSW 5.1 km/h 16.9 km/h 82 % 0 mm
13:44 -13.4 °C -15.2 °C 33822.8 hPa SW 8.9 km/h 23.8 km/h 81 % 0 mm
13:48 -13.4 °C -15.2 °C 33822.8 hPa SW 11.6 km/h 23.8 km/h 80 % 0 mm
13:53 -13.4 °C -15.4 °C 33822.8 hPa SSW 14.5 km/h 23.8 km/h 78 % 0 mm
13:54 -13.4 °C -15.5 °C 33822.8 hPa SSW 14.5 km/h 22 km/h 77 % 0 mm
13:59 -13.3 °C -15.6 °C 33822.8 hPa SW 12.2 km/h 22 km/h 76 % 0 mm
14:04 -13.3 °C -15.7 °C 33822.8 hPa WSW 8.9 km/h 15 km/h 75 % 0 mm
14:07 -13.3 °C -15.7 °C 33822.8 hPa WSW 7.2 km/h 14 km/h 74 % 0 mm
14:11 -13.3 °C -15.9 °C 33822.8 hPa SW 7.2 km/h 14 km/h 73 % 0 mm
14:16 -13.3 °C -15.9 °C 33822.8 hPa WSW 8.9 km/h 20.9 km/h 72 % 0 mm
14:20 -13.3 °C -16 °C 33822.8 hPa WSW 9.8 km/h 20.9 km/h 71 % 0 mm
14:26 -13.3 °C -16.2 °C 33822.8 hPa WSW 9 km/h 19.2 km/h 69 % 0 mm
14:31 -13.3 °C -16.4 °C 33822.8 hPa WSW 8 km/h 18.7 km/h 68 % 0 mm
14:36 -13.3 °C -16.6 °C 33822.8 hPa WSW 8.5 km/h 19.6 km/h 67 % 0 mm
14:38 -13.3 °C -16.5 °C 33822.8 hPa West 9.7 km/h 19.6 km/h 67 % 0 mm
14:39 -13.3 °C -16.6 °C 33822.8 hPa WSW 9.8 km/h 19.6 km/h 66 % 0 mm
14:44 -13.3 °C -16.7 °C 33856.6 hPa WSW 9 km/h 16.9 km/h 65 % 0 mm
14:48 -13.3 °C -16.8 °C 33856.6 hPa WSW 6.8 km/h 15.6 km/h 65 % 0 mm
14:49 -13.3 °C -16.9 °C 33856.6 hPa West 5.6 km/h 12.7 km/h 64 % 0 mm
14:54 -13.3 °C -16.9 °C 33856.6 hPa NNW 5.5 km/h 12.7 km/h 64 % 0 mm
14:56 -13.4 °C -16.9 °C 33856.6 hPa NNW 5.6 km/h 15 km/h 64 % 0 mm
15:01 -13.3 °C -17 °C 33890.5 hPa WNW 8.2 km/h 20.9 km/h 63 % 0 mm
15:02 -13.3 °C -17 °C 33890.5 hPa WNW 8.5 km/h 20.9 km/h 63 % 0 mm
15:03 -13.3 °C -17 °C 33890.5 hPa WNW 8.5 km/h 20.9 km/h 63 % 0 mm
15:08 -13.3 °C -17.1 °C 33890.5 hPa WNW 8 km/h 20.9 km/h 62 % 0 mm
15:13 -13.3 °C -17.2 °C 33890.5 hPa West 7.6 km/h 25.4 km/h 61 % 0 mm
15:18 -13.3 °C -17.3 °C 33890.5 hPa West 7.7 km/h 25.4 km/h 60 % 0 mm
15:22 -13.3 °C -17.3 °C 33890.5 hPa West 7.2 km/h 14.5 km/h 60 % 0 mm
15:23 -13.3 °C -17.3 °C 33890.5 hPa West 7.2 km/h 14.5 km/h 60 % 0 mm
15:28 -13.2 °C -17.3 °C 33890.5 hPa West 8 km/h 16.9 km/h 60 % 0 mm
15:33 -13.2 °C -17.4 °C 33890.5 hPa WNW 7.6 km/h 28.5 km/h 59 % 0 mm
15:35 -13.2 °C -17.4 °C 33890.5 hPa West 9.3 km/h 35.2 km/h 59 % 0 mm
15:38 -13.2 °C -17.5 °C 33890.5 hPa West 11.1 km/h 35.2 km/h 58 % 0 mm
15:41 -13.2 °C -17.5 °C 33890.5 hPa West 11.6 km/h 35.2 km/h 58 % 0 mm
15:46 -13.2 °C -17.6 °C 33890.5 hPa West 10.6 km/h 19.6 km/h 57 % 0 mm
15:47 -13.2 °C -17.6 °C 33890.5 hPa WSW 9.8 km/h 18.7 km/h 57 % 0 mm
15:51 -13.2 °C -17.7 °C 33890.5 hPa WSW 9.3 km/h 19.2 km/h 57 % 0 mm
15:58 -13.2 °C -17.7 °C 33924.3 hPa WSW 7.6 km/h 19.2 km/h 57 % 0 mm
16:03 -13.2 °C -17.7 °C 33924.3 hPa WNW 7.7 km/h 58.6 km/h 57 % 0 mm
16:05 -13.3 °C -17.7 °C 33924.3 hPa WNW 9.8 km/h 58.6 km/h 57 % 0 mm
16:06 -13.3 °C -17.7 °C 33924.3 hPa NW 10.1 km/h 58.6 km/h 57 % 0 mm
16:11 -13.4 °C -17.9 °C 33924.3 hPa NW 11.9 km/h 58.6 km/h 57 % 7.62 mm
16:15 -13.6 °C -17.9 °C 33924.3 hPa NW 11.6 km/h 27.7 km/h 58 % 7.62 mm
16:20 -13.7 °C -18 °C 33924.3 hPa WNW 12.4 km/h 35.2 km/h 58 % 12.7 mm
16:21 -13.7 °C -18 °C 33924.3 hPa West 12.2 km/h 35.2 km/h 58 % 12.7 mm
16:24 -13.8 °C -17.9 °C 33924.3 hPa West 11.4 km/h 35.2 km/h 59 % 12.7 mm
16:28 -13.9 °C -17.9 °C 33924.3 hPa WSW 9.8 km/h 22 km/h 60 % 12.7 mm
16:33 -14 °C -17.9 °C 33924.3 hPa WSW 10.3 km/h 22 km/h 61 % 12.7 mm
16:34 -14 °C -17.9 °C 33924.3 hPa WSW 10.9 km/h 26.2 km/h 61 % 12.7 mm
16:40 -14.1 °C -17.8 °C 33924.3 hPa WSW 10.6 km/h 26.2 km/h 62 % 20.32 mm
16:42 -14.1 °C -17.9 °C 33924.3 hPa SW 10.6 km/h 26.2 km/h 62 % 25.4 mm
16:45 -14.2 °C -17.8 °C 33924.3 hPa SW 8.2 km/h 11.6 km/h 63 % 25.4 mm
16:50 -14.2 °C -17.7 °C 33924.3 hPa SW 6.3 km/h 9.3 km/h 64 % 25.4 mm
16:52 -14.3 °C -17.8 °C 33924.3 hPa WSW 5.5 km/h 9.3 km/h 64 % 25.4 mm
16:57 -14.4 °C -17.8 °C 33924.3 hPa SW 4.7 km/h 8.9 km/h 65 % 33.02 mm
17:03 -14.4 °C -17.6 °C 33958.2 hPa SW 6.3 km/h 9.8 km/h 67 % 38.1 mm
17:04 -14.5 °C -17.7 °C 33958.2 hPa SSW 6.9 km/h 12.2 km/h 67 % 38.1 mm
17:09 -14.6 °C -17.6 °C 33958.2 hPa SSW 7.2 km/h 12.2 km/h 68 % 45.72 mm
17:11 -14.6 °C -17.4 °C 33958.2 hPa South 6.8 km/h 12.2 km/h 69 % 45.72 mm
17:13 -14.6 °C -17.4 °C 33924.3 hPa South 5.6 km/h 12.2 km/h 69 % 45.72 mm
17:17 -14.6 °C -17.4 °C 33924.3 hPa SSE 4.7 km/h 8 km/h 70 % 45.72 mm
17:25 -14.7 °C -17.3 °C 33924.3 hPa SSE 3.4 km/h 7.6 km/h 71 % 45.72 mm
17:26 -14.7 °C -17.3 °C 33924.3 hPa South 2.3 km/h 6.4 km/h 71 % 45.72 mm
17:31 -14.7 °C -17.3 °C 33958.2 hPa SSE 3.4 km/h 10.3 km/h 72 % 45.72 mm
17:36 -14.8 °C -17.3 °C 33958.2 hPa SSE 6.9 km/h 15 km/h 73 % 45.72 mm
17:37 -14.8 °C -17.3 °C 33958.2 hPa SSE 8.2 km/h 15 km/h 73 % 45.72 mm
17:38 -14.8 °C -17.3 °C 33958.2 hPa SSE 8.9 km/h 15 km/h 73 % 33.02 mm
17:47 -14.8 °C -17.2 °C 33924.3 hPa SSE 8 km/h 16.9 km/h 74 % 25.4 mm
17:52 -14.8 °C -17.1 °C 33924.3 hPa SW 6.4 km/h 12.7 km/h 75 % 25.4 mm
17:54 -14.8 °C -17.1 °C 33924.3 hPa SW 6.3 km/h 14 km/h 75 % 25.4 mm
17:59 -14.9 °C -17.2 °C 33958.2 hPa West 8.9 km/h 14 km/h 75 % 20.32 mm
18:02 -14.9 °C -17.2 °C 33958.2 hPa WNW 9.7 km/h 14 km/h 75 % 20.32 mm
18:07 -14.9 °C -17.1 °C 33958.2 hPa North 5.1 km/h 12.7 km/h 76 % 7.62 mm
18:14 -15 °C -17.1 °C 33958.2 hPa SW 0.3 km/h 3.4 km/h 77 % 7.62 mm
18:19 -15.1 °C -17 °C 33958.2 hPa Calm   3.4 km/h 78 % 0 mm
18:21 -15.1 °C -17 °C 33958.2 hPa Calm   3.4 km/h 78 % 0 mm
18:25 -15.1 °C -17.1 °C 33958.2 hPa SW 1.6 km/h 7.6 km/h 78 % 0 mm
18:30 -15.2 °C -17.1 °C 33958.2 hPa SW 3.1 km/h 7.6 km/h 78 % 0 mm
18:31 -15.2 °C -17 °C 33958.2 hPa SW 3.1 km/h 7.6 km/h 79 % 0 mm
18:33 -15.2 °C -17 °C 33958.2 hPa SW 2.3 km/h 6.9 km/h 79 % 0 mm
18:37 -15.2 °C -17.1 °C 33958.2 hPa North 0.3 km/h   79 % 0 mm
18:40 -15.2 °C -17 °C 33958.2 hPa Calm     80 % 0 mm
18:42 -15.2 °C -17 °C 33958.2 hPa Calm     80 % 0 mm
18:47 -15.3 °C -17.1 °C 33958.2 hPa Calm     80 % 0 mm
18:48 -15.3 °C -17.1 °C 33958.2 hPa SW 0.3 km/h 6.9 km/h 80 % 0 mm
18:49 -15.3 °C -17 °C 33958.2 hPa SW 0.8 km/h 6.9 km/h 81 % 0 mm
18:53 -15.3 °C -17 °C 33958.2 hPa SW 2.9 km/h 7.6 km/h 81 % 0 mm
18:58 -15.4 °C -17.1 °C 33958.2 hPa WSW 5.5 km/h 7.6 km/h 81 % 0 mm
19:02 -15.4 °C -16.9 °C 33958.2 hPa West 3.9 km/h 7.6 km/h 82 % 0 mm
19:07 -15.5 °C -17.1 °C 33958.2 hPa WNW 2.1 km/h 6.4 km/h 82 % 0 mm
19:13 -15.5 °C -17.1 °C 33958.2 hPa West 1 km/h 5.6 km/h 82 % 0 mm
19:15 -15.5 °C -17 °C 33958.2 hPa North 0.3 km/h   83 % 0 mm
19:20 -15.6 °C -17 °C 33958.2 hPa Calm     83 % 0 mm
19:23 -15.6 °C -17 °C 33958.2 hPa Calm     83 % 0 mm
19:28 -15.6 °C -17 °C 33992.1 hPa Calm     84 % 0 mm
19:33 -15.7 °C -17.1 °C 33992.1 hPa WSW 0.8 km/h 6.9 km/h 84 % 0 mm
19:36 -15.7 °C -17.1 °C 33992.1 hPa SW 2.1 km/h 6.9 km/h 84 % 0 mm
19:37 -15.7 °C -17.1 °C 33992.1 hPa SW 2.9 km/h 7.6 km/h 84 % 0 mm
19:42 -15.7 °C -16.9 °C 33992.1 hPa SW 5.1 km/h 7.6 km/h 85 % 0 mm
19:43 -15.7 °C -17 °C 33992.1 hPa SW 4.7 km/h 7.6 km/h 85 % 0 mm
19:44 -15.7 °C -17 °C 33992.1 hPa SW 4.2 km/h 7.6 km/h 85 % 0 mm
19:48 -15.7 °C -17 °C 33992.1 hPa WSW 2.1 km/h 7.6 km/h 85 % 0 mm
19:50 -15.8 °C -17.1 °C 33992.1 hPa West 1 km/h 6.9 km/h 85 % 0 mm
19:55 -15.8 °C -17.1 °C 33992.1 hPa West 2.3 km/h 6.9 km/h 85 % 0 mm
20:00 -15.9 °C -17.2 °C 33992.1 hPa West 1.8 km/h 6.4 km/h 85 % 0 mm
20:09 -15.9 °C -17.1 °C 33992.1 hPa WSW 0.8 km/h 5.6 km/h 86 % 0 mm
20:14 -16 °C -17.2 °C 33992.1 hPa SSW 3.7 km/h 6.9 km/h 86 % 0 mm
20:16 -15.9 °C -17.1 °C 33992.1 hPa SSW 4.2 km/h 11.1 km/h 86 % 0 mm
20:20 -16 °C -17.2 °C 33992.1 hPa SW 5.5 km/h 11.1 km/h 86 % 0 mm
20:25 -16.1 °C -17.2 °C 33992.1 hPa West 5.6 km/h 9.3 km/h 86 % 0 mm
20:26 -16.1 °C -17.2 °C 33992.1 hPa West 5.6 km/h 9.3 km/h 86 % 0 mm
20:29 -16.1 °C -17.1 °C 33992.1 hPa WNW 3.7 km/h 8.9 km/h 87 % 0 mm
20:31 -16.1 °C -17.1 °C 33992.1 hPa NW 2.6 km/h 8 km/h 87 % 0 mm
20:36 -16.1 °C -17.2 °C 33992.1 hPa WNW 0.8 km/h 8 km/h 87 % 0 mm
20:41 -16.1 °C -17.2 °C 33992.1 hPa WSW 1.6 km/h 8.9 km/h 87 % 0 mm
20:46 -16.1 °C -17.2 °C 34029.3 hPa SW 4.7 km/h 9.3 km/h 87 % 0 mm
20:47 -16.2 °C -17.2 °C 34029.3 hPa SW 5 km/h 9.3 km/h 88 % 0 mm
20:54 -16.3 °C -17.3 °C 34029.3 hPa WNW 3.7 km/h 7.6 km/h 88 % 0 mm
20:59 -16.3 °C -17.3 °C 34029.3 hPa NW 1.8 km/h 6.4 km/h 88 % 0 mm
21:05 -16.4 °C -17.4 °C 34029.3 hPa Calm     88 % 0 mm
21:10 -16.4 °C -17.4 °C 34029.3 hPa Calm     88 % 0 mm
21:16 -16.5 °C -17.5 °C 34029.3 hPa SW 1 km/h 8 km/h 88 % 0 mm
21:21 -16.6 °C -17.6 °C 34029.3 hPa WSW 2.3 km/h 8 km/h 88 % 0 mm
21:23 -16.7 °C -17.7 °C 34029.3 hPa WSW 2.3 km/h 8 km/h 88 % 0 mm
21:30 -16.8 °C -17.8 °C 34029.3 hPa Calm     88 % 0 mm
21:35 -16.9 °C -17.8 °C 34029.3 hPa WSW 1.3 km/h 6.4 km/h 89 % 0 mm
21:38 -16.9 °C -17.8 °C 34029.3 hPa WSW 1.6 km/h 6.4 km/h 89 % 0 mm
21:45 -17 °C -17.9 °C 34029.3 hPa WSW 0.8 km/h 5.1 km/h 89 % 0 mm
21:47 -17 °C -17.9 °C 34029.3 hPa WSW 0.5 km/h 5.1 km/h 89 % 0 mm
21:52 -17.1 °C -17.9 °C 34029.3 hPa Calm   2.9 km/h 89 % 0 mm
21:53 -17.1 °C -17.9 °C 34029.3 hPa Calm   2.9 km/h 89 % 0 mm
21:54 -17.1 °C -17.9 °C 34029.3 hPa Calm   7.6 km/h 89 % 0 mm
21:59 -17.1 °C -18 °C 34029.3 hPa WNW 1 km/h 7.6 km/h 89 % 0 mm
22:01 -17.2 °C -18.1 °C 34029.3 hPa NW 1.3 km/h 7.6 km/h 89 % 0 mm
22:02 -17.2 °C -18.1 °C 34029.3 hPa NW 2.1 km/h 7.6 km/h 89 % 0 mm
22:07 -17.2 °C -18.1 °C 34029.3 hPa NNW 1.6 km/h 6.9 km/h 89 % 0 mm
22:09 -17.2 °C -18.1 °C 34029.3 hPa NNW 1.6 km/h 6.9 km/h 89 % 0 mm
22:10 -17.2 °C -18.1 °C 34029.3 hPa NNW 1.6 km/h 6.9 km/h 89 % 0 mm
22:15 -17.3 °C -18.2 °C 34029.3 hPa WNW 0.8 km/h 6.4 km/h 89 % 0 mm
22:20 -17.3 °C -18.2 °C 34029.3 hPa WNW 0.8 km/h 6.4 km/h 89 % 0 mm
22:21 -17.4 °C -18.3 °C 34029.3 hPa WNW 0.8 km/h 6.4 km/h 89 % 0 mm
22:25 -17.4 °C -18.3 °C 34029.3 hPa Calm     89 % 0 mm
22:30 -17.4 °C -18.3 °C 33992.1 hPa Calm   5.6 km/h 89 % 0 mm
22:31 -17.4 °C -18.3 °C 33992.1 hPa WNW 0.3 km/h 5.6 km/h 89 % 0 mm
22:36 -17.4 °C -18.3 °C 33992.1 hPa SW 2.1 km/h 7.6 km/h 89 % 0 mm
22:37 -17.4 °C -18.3 °C 33992.1 hPa SW 3.1 km/h 8.9 km/h 89 % 0 mm
22:42 -17.4 °C -18.3 °C 33992.1 hPa SSW 5 km/h 8.9 km/h 89 % 0 mm
22:47 -17.5 °C -18.4 °C 33992.1 hPa SW 2.3 km/h 8 km/h 89 % 0 mm
22:48 -17.5 °C -18.4 °C 33992.1 hPa SW 2.1 km/h 8 km/h 89 % 0 mm
22:53 -17.6 °C -18.4 °C 33992.1 hPa Calm     90 % 0 mm
22:56 -17.6 °C -18.4 °C 33992.1 hPa SW 1 km/h 6.4 km/h 90 % 0 mm
22:59 -17.6 °C -18.4 °C 34029.3 hPa West 1.3 km/h 6.4 km/h 90 % 0 mm
23:03 -17.6 °C -18.4 °C 34029.3 hPa WNW 1.6 km/h 6.4 km/h 90 % 0 mm
23:08 -17.7 °C -18.4 °C 34029.3 hPa North 0.5 km/h 4.2 km/h 90 % 0 mm
23:10 -17.7 °C -18.4 °C 34029.3 hPa Calm     90 % 0 mm
23:15 -17.7 °C -18.5 °C 34029.3 hPa Calm   2.3 km/h 90 % 0 mm
23:16 -17.7 °C -18.5 °C 34029.3 hPa Calm   2.3 km/h 90 % 0 mm
23:23 -17.7 °C -18.5 °C 34029.3 hPa Calm   4.2 km/h 90 % 0 mm
23:28 -17.8 °C -18.6 °C 34029.3 hPa Calm     90 % 0 mm
23:31 -17.8 °C -18.6 °C 34029.3 hPa Calm     90 % 0 mm
23:36 -17.8 °C -18.7 °C 34029.3 hPa Calm     90 % 0 mm
23:37 -17.8 °C -18.7 °C 34029.3 hPa Calm     90 % 0 mm
23:42 -17.9 °C -18.7 °C 34029.3 hPa Calm     90 % 0 mm
23:47 -17.9 °C -18.7 °C 34029.3 hPa Calm     90 % 0 mm
23:54 -17.9 °C -18.7 °C 34029.3 hPa Calm     90 % 0 mm
23:57 -17.9 °C -18.7 °C 34029.3 hPa Calm     90 % 0 mm
Vremenska postaja Senovo
Podatki zbrani iz Weather Underground - 3.25 mb

Script developed by  Jim McMurry - jmcmurry@mwt.net Adapted for the template by  Wim van der Kuil - Leuven-Template.eu

Vremenski podatki so objavljeni na:

European Weather Network

WeatherCloud

Weather Underground

AWEKAS

HAMweather, WeatherForYou, PWS Weather

MapView

Geostik

Slovenia weather network

Oprema, ki se uporablja:

Vremenski program
Cumulus

Vremenski server
Asus

Cumulus

Asus